createdAt,value
2022-12-18T00:00:43.255Z,-16.18
2022-12-18T00:03:28.602Z,-16.17
2022-12-18T00:06:15.096Z,-16.15
2022-12-18T00:09:02.622Z,-16.12
2022-12-18T00:11:48.413Z,-16.10
2022-12-18T00:14:33.887Z,-16.09
2022-12-18T00:17:19.181Z,-16.10
2022-12-18T00:20:05.168Z,-16.14
2022-12-18T00:22:50.783Z,-16.14
2022-12-18T00:25:37.291Z,-16.19
2022-12-18T00:28:22.875Z,-16.18
2022-12-18T00:31:12.022Z,-16.19
2022-12-18T00:33:58.331Z,-16.23
2022-12-18T00:36:43.864Z,-16.28
2022-12-18T00:39:30.510Z,-16.29
2022-12-18T00:42:34.624Z,-16.31
2022-12-18T00:45:20.058Z,-16.33
2022-12-18T00:48:05.713Z,-16.40
2022-12-18T00:50:52.028Z,-16.40
2022-12-18T00:53:37.719Z,-16.36
2022-12-18T00:56:24.170Z,-16.32
2022-12-18T00:59:09.675Z,-16.28
2022-12-18T01:01:57.883Z,-16.28
2022-12-18T01:04:43.042Z,-16.26
2022-12-18T01:07:28.463Z,-16.23
2022-12-18T01:10:14.207Z,-16.20
2022-12-18T01:12:59.861Z,-16.23
2022-12-18T01:15:51.853Z,-16.26
2022-12-18T01:18:37.401Z,-16.28
2022-12-18T01:21:24.253Z,-16.30
2022-12-18T01:24:12.717Z,-16.33
2022-12-18T01:26:58.262Z,-16.39
2022-12-18T01:29:43.651Z,-16.42
2022-12-18T01:32:31.648Z,-16.46
2022-12-18T01:35:17.254Z,-16.47
2022-12-18T01:38:02.839Z,-16.50
2022-12-18T01:40:48.369Z,-16.57
2022-12-18T01:43:49.433Z,-16.63
2022-12-18T01:46:34.914Z,-16.61
2022-12-18T01:49:20.499Z,-16.60
2022-12-18T01:52:06.039Z,-16.62
2022-12-18T01:54:53.200Z,-16.59
2022-12-18T01:57:39.433Z,-16.65
2022-12-18T02:00:25.622Z,-16.73
2022-12-18T02:03:11.612Z,-16.74
2022-12-18T02:06:13.998Z,-16.73
2022-12-18T02:09:10.539Z,-16.71
2022-12-18T02:12:10.016Z,-16.69
2022-12-18T02:15:25.025Z,-16.70
2022-12-18T02:18:18.150Z,-16.66
2022-12-18T02:21:28.677Z,-16.64
2022-12-18T02:24:32.929Z,-16.63
2022-12-18T02:27:19.714Z,-16.61
2022-12-18T02:30:08.414Z,-16.58
2022-12-18T02:32:56.427Z,-16.59
2022-12-18T02:35:43.247Z,-16.54
2022-12-18T02:38:31.300Z,-16.48
2022-12-18T02:41:24.548Z,-16.43
2022-12-18T02:44:11.750Z,-16.43
2022-12-18T02:46:57.117Z,-16.40
2022-12-18T02:49:58.710Z,-16.34
2022-12-18T02:52:51.301Z,-16.31
2022-12-18T02:55:57.607Z,-16.32
2022-12-18T02:59:23.153Z,-16.44
2022-12-18T03:02:24.933Z,-16.48
2022-12-18T03:05:10.871Z,-16.42
2022-12-18T03:08:19.178Z,-16.35
2022-12-18T03:11:10.584Z,-16.29
2022-12-18T03:13:59.584Z,-16.23
2022-12-18T03:16:47.336Z,-16.17
2022-12-18T03:19:34.392Z,-16.11
2022-12-18T03:22:23.295Z,-16.09
2022-12-18T03:25:15.649Z,-16.10
2022-12-18T03:28:04.151Z,-16.09
2022-12-18T03:30:56.815Z,-16.01
2022-12-18T03:33:52.503Z,-15.94
2022-12-18T03:36:38.450Z,-15.91
2022-12-18T03:39:25.596Z,-15.92
2022-12-18T03:42:24.543Z,-16.02
2022-12-18T03:45:27.503Z,-15.99
2022-12-18T03:48:22.459Z,-15.93
2022-12-18T03:51:15.809Z,-15.94
2022-12-18T03:54:05.133Z,-15.93
2022-12-18T03:57:24.120Z,-15.88
2022-12-18T04:00:18.151Z,-15.86
2022-12-18T04:03:26.200Z,-15.81
2022-12-18T04:06:13.038Z,-15.80
2022-12-18T04:09:00.503Z,-15.81
2022-12-18T04:11:47.586Z,-15.77
2022-12-18T04:14:36.634Z,-15.79
2022-12-18T04:17:24.910Z,-15.83
2022-12-18T04:20:11.428Z,-15.81
2022-12-18T04:23:00.917Z,-15.77
2022-12-18T04:25:48.504Z,-15.75
2022-12-18T04:28:40.727Z,-15.73
2022-12-18T04:31:26.451Z,-15.68
2022-12-18T04:34:12.544Z,-15.63
2022-12-18T04:37:04.702Z,-15.66
2022-12-18T04:39:50.556Z,-15.65
2022-12-18T04:42:43.535Z,-15.63
2022-12-18T04:45:28.702Z,-15.54
2022-12-18T04:48:14.284Z,-15.48
2022-12-18T04:50:59.869Z,-15.42
2022-12-18T04:53:45.737Z,-15.37
2022-12-18T04:56:32.694Z,-15.33
2022-12-18T04:59:17.889Z,-15.32
2022-12-18T05:02:03.362Z,-15.28
2022-12-18T05:04:48.981Z,-15.21
2022-12-18T05:07:34.491Z,-15.13
2022-12-18T05:10:19.844Z,-15.07
2022-12-18T05:13:05.313Z,-15.02
2022-12-18T05:15:54.840Z,-14.96
2022-12-18T05:18:40.670Z,-14.91
2022-12-18T05:21:28.450Z,-14.86
2022-12-18T05:24:13.855Z,-14.79
2022-12-18T05:26:59.454Z,-14.73
2022-12-18T05:29:44.903Z,-14.70
2022-12-18T05:32:30.310Z,-14.66
2022-12-18T05:35:15.716Z,-14.62
2022-12-18T05:38:01.190Z,-14.56
2022-12-18T05:40:48.467Z,-14.51
2022-12-18T05:43:36.872Z,-14.47
2022-12-18T05:46:22.631Z,-14.42
2022-12-18T05:49:11.078Z,-14.34
2022-12-18T05:51:56.949Z,-14.28
2022-12-18T05:54:42.556Z,-14.22
2022-12-18T05:57:30.953Z,-14.14
2022-12-18T06:00:16.902Z,-14.14
2022-12-18T06:03:03.096Z,-14.10
2022-12-18T06:05:48.731Z,-14.09
2022-12-18T06:08:34.077Z,-14.08
2022-12-18T06:11:25.342Z,-14.04
2022-12-18T06:14:11.439Z,-14.01
2022-12-18T06:16:58.149Z,-14.00
2022-12-18T06:19:43.486Z,-13.97
2022-12-18T06:22:29.051Z,-13.95
2022-12-18T06:25:14.527Z,-13.95
2022-12-18T06:28:00.293Z,-13.95
2022-12-18T06:30:47.085Z,-13.91
2022-12-18T06:33:32.729Z,-13.93
2022-12-18T06:36:18.416Z,-13.95
2022-12-18T06:39:03.829Z,-14.01
2022-12-18T06:41:49.474Z,-14.05
2022-12-18T06:44:34.784Z,-14.06
2022-12-18T06:47:20.111Z,-14.06
2022-12-18T06:50:05.683Z,-14.05
2022-12-18T06:52:53.662Z,-14.06
2022-12-18T06:55:39.346Z,-14.11
2022-12-18T06:58:25.628Z,-14.11
2022-12-18T07:01:12.845Z,-14.12
2022-12-18T07:03:58.702Z,-14.16
2022-12-18T07:06:44.157Z,-14.16
2022-12-18T07:09:29.643Z,-14.16
2022-12-18T07:12:15.049Z,-14.13
2022-12-18T07:15:00.606Z,-14.09
2022-12-18T07:17:46.007Z,-14.04
2022-12-18T07:20:31.483Z,-13.99
2022-12-18T07:23:16.657Z,-13.92
2022-12-18T07:26:07.564Z,-13.87
2022-12-18T07:28:56.347Z,-13.82
2022-12-18T07:31:42.013Z,-13.80
2022-12-18T07:34:27.842Z,-13.78
2022-12-18T07:37:13.326Z,-13.78
2022-12-18T07:39:59.202Z,-13.79
2022-12-18T07:42:44.770Z,-13.78
2022-12-18T07:45:30.083Z,-13.76
2022-12-18T07:48:15.478Z,-13.78
2022-12-18T07:51:05.351Z,-13.80
2022-12-18T07:53:52.427Z,-13.79
2022-12-18T07:56:37.749Z,-13.84
2022-12-18T07:59:26.302Z,-13.89
2022-12-18T08:02:12.060Z,-13.89
2022-12-18T08:04:57.954Z,-13.93
2022-12-18T08:07:43.462Z,-13.96
2022-12-18T08:10:28.745Z,-13.95
2022-12-18T08:13:14.292Z,-13.96
2022-12-18T08:16:05.829Z,-13.93
2022-12-18T08:18:55.779Z,-13.92
2022-12-18T08:21:41.285Z,-13.90
2022-12-18T08:24:26.983Z,-13.92
2022-12-18T08:27:42.167Z,-13.90
2022-12-18T08:30:17.751Z,-13.89
2022-12-18T08:33:04.240Z,-13.86
2022-12-18T08:35:49.790Z,-13.85
2022-12-18T08:38:35.609Z,-13.85
2022-12-18T08:41:22.099Z,-13.80
2022-12-18T08:44:27.852Z,-13.77
2022-12-18T08:47:13.043Z,-13.73
2022-12-18T08:49:58.637Z,-13.69
2022-12-18T08:52:44.343Z,-13.70
2022-12-18T08:55:29.778Z,-13.67
2022-12-18T08:58:15.294Z,-13.64
2022-12-18T09:01:03.313Z,-13.60
2022-12-18T09:03:51.722Z,-13.58
2022-12-18T09:06:37.665Z,-13.51
2022-12-18T09:09:23.730Z,-13.52
2022-12-18T09:12:08.998Z,-13.52
2022-12-18T09:14:54.416Z,-13.52
2022-12-18T09:17:39.872Z,-13.54
2022-12-18T09:20:25.659Z,-13.53
2022-12-18T09:23:11.801Z,-13.49
2022-12-18T09:26:00.770Z,-13.41
2022-12-18T09:28:46.512Z,-13.27
2022-12-18T09:31:32.318Z,-13.12
2022-12-18T09:34:17.870Z,-13.04
2022-12-18T09:37:03.619Z,-13.01
2022-12-18T09:39:48.736Z,-12.95
2022-12-18T09:42:34.300Z,-12.88
2022-12-18T09:45:19.798Z,-12.80
2022-12-18T09:48:06.664Z,-12.72
2022-12-18T09:50:57.192Z,-12.69
2022-12-18T09:53:48.271Z,-12.65
2022-12-18T09:56:38.816Z,-12.61
2022-12-18T09:59:38.901Z,-12.60
2022-12-18T10:02:26.771Z,-12.56
2022-12-18T10:05:20.707Z,-12.53
2022-12-18T10:08:34.175Z,-12.47
2022-12-18T10:11:26.729Z,-12.39
2022-12-18T10:14:35.081Z,-12.36
2022-12-18T10:17:27.472Z,-12.30
2022-12-18T10:20:39.819Z,-12.21
2022-12-18T10:23:34.980Z,-12.11
2022-12-18T10:26:22.114Z,-11.93
2022-12-18T10:29:13.712Z,-11.86
2022-12-18T10:31:59.702Z,-11.80
2022-12-18T10:34:53.027Z,-11.83
2022-12-18T10:38:21.763Z,-11.87
2022-12-18T10:41:29.357Z,-11.93
2022-12-18T10:44:23.620Z,-12.06
2022-12-18T10:47:18.730Z,-12.07
2022-12-18T10:50:04.990Z,-11.96
2022-12-18T10:53:05.158Z,-11.94
2022-12-18T10:55:53.614Z,-11.91
2022-12-18T10:58:40.899Z,-11.79
2022-12-18T11:01:27.622Z,-11.65
2022-12-18T11:04:18.018Z,-11.51
2022-12-18T11:07:08.800Z,-11.39
2022-12-18T11:10:02.206Z,-11.28
2022-12-18T11:12:48.443Z,-11.18
2022-12-18T11:15:34.544Z,-11.09
2022-12-18T11:18:37.153Z,-11.06
2022-12-18T11:21:22.582Z,-11.03
2022-12-18T11:24:25.470Z,-10.99
2022-12-18T11:27:19.499Z,-10.93
2022-12-18T11:30:21.551Z,-10.86
2022-12-18T11:33:21.765Z,-10.78
2022-12-18T11:36:10.702Z,-10.71
2022-12-18T11:39:00.456Z,-10.69
2022-12-18T11:42:12.907Z,-10.69
2022-12-18T11:45:04.320Z,-10.72
2022-12-18T11:48:05.866Z,-10.73
2022-12-18T11:51:03.933Z,-10.74
2022-12-18T11:53:49.336Z,-10.68
2022-12-18T11:56:42.696Z,-10.63
2022-12-18T11:59:48.176Z,-10.63
2022-12-18T12:03:12.041Z,-10.66
2022-12-18T12:06:24.061Z,-10.62
2022-12-18T12:09:26.112Z,-10.58
2022-12-18T12:12:55.679Z,-10.51
2022-12-18T12:16:29.563Z,-10.50
2022-12-18T12:19:33.288Z,-10.48
2022-12-18T12:22:27.810Z,-10.46
2022-12-18T12:25:45.384Z,-10.43
2022-12-18T12:28:55.545Z,-10.43
2022-12-18T12:31:56.093Z,-10.43
2022-12-18T12:34:47.576Z,-10.41
2022-12-18T12:37:45.080Z,-10.37
2022-12-18T12:40:55.176Z,-10.35
2022-12-18T12:43:50.978Z,-10.30
2022-12-18T12:46:42.666Z,-10.26
2022-12-18T12:49:37.667Z,-10.21
2022-12-18T12:52:37.074Z,-10.14
2022-12-18T12:55:31.698Z,-10.07
2022-12-18T12:58:35.426Z,-9.97
2022-12-18T13:01:30.196Z,-9.90
2022-12-18T13:04:43.194Z,-9.84
2022-12-18T13:07:58.530Z,-9.78
2022-12-18T13:10:44.799Z,-9.73
2022-12-18T13:13:50.751Z,-9.68
2022-12-18T13:16:36.199Z,-9.63
2022-12-18T13:19:27.337Z,-9.59
2022-12-18T13:22:37.707Z,-9.56
2022-12-18T13:25:43.802Z,-9.50
2022-12-18T13:28:48.047Z,-9.47
2022-12-18T13:31:43.431Z,-9.44
2022-12-18T13:34:34.633Z,-9.42
2022-12-18T13:37:32.643Z,-9.41
2022-12-18T13:40:40.475Z,-9.42
2022-12-18T13:43:29.700Z,-9.41
2022-12-18T13:46:44.681Z,-9.32
2022-12-18T13:49:42.325Z,-9.23
2022-12-18T13:52:41.839Z,-9.18
2022-12-18T13:55:30.506Z,-9.23
2022-12-18T13:58:15.816Z,-9.30
2022-12-18T14:01:03.150Z,-9.32
2022-12-18T14:03:51.307Z,-9.38
2022-12-18T14:06:37.610Z,-9.52
2022-12-18T14:09:28.136Z,-9.75
2022-12-18T14:12:44.120Z,-9.85
2022-12-18T14:15:48.911Z,-9.94
2022-12-18T14:18:45.138Z,-10.01
2022-12-18T14:21:33.091Z,-10.07
2022-12-18T14:24:23.638Z,-10.13
2022-12-18T14:27:39.119Z,-10.25
2022-12-18T14:30:31.334Z,-10.40
2022-12-18T14:33:28.060Z,-10.48
2022-12-18T14:36:18.097Z,-10.56
2022-12-18T14:39:03.886Z,-10.65
2022-12-18T14:41:59.758Z,-10.84
2022-12-18T14:45:12.817Z,-11.00
2022-12-18T14:47:56.316Z,-11.12
2022-12-18T14:50:45.620Z,-11.24
2022-12-18T14:53:47.606Z,-11.34
2022-12-18T14:56:38.997Z,-11.41
2022-12-18T14:59:27.145Z,-11.48
2022-12-18T15:02:28.562Z,-11.54
2022-12-18T15:05:14.131Z,-11.56
2022-12-18T15:08:01.746Z,-11.55
2022-12-18T15:10:49.023Z,-11.61
2022-12-18T15:13:36.836Z,-11.65
2022-12-18T15:16:22.567Z,-11.71
2022-12-18T15:19:09.148Z,-11.84
2022-12-18T15:21:54.520Z,-12.00
2022-12-18T15:24:39.897Z,-12.11
2022-12-18T15:27:31.641Z,-12.16
2022-12-18T15:30:23.406Z,-12.19
2022-12-18T15:33:28.208Z,-12.16
2022-12-18T15:36:18.993Z,-12.14
2022-12-18T15:39:14.276Z,-12.12
2022-12-18T15:42:20.808Z,-12.11
2022-12-18T15:45:06.794Z,-12.14
2022-12-18T15:47:52.547Z,-12.17
2022-12-18T15:50:37.914Z,-12.18
2022-12-18T15:53:26.386Z,-12.21
2022-12-18T15:56:31.835Z,-12.34
2022-12-18T15:59:19.295Z,-12.37
2022-12-18T16:02:18.047Z,-12.39
2022-12-18T16:05:04.331Z,-12.43
2022-12-18T16:07:49.737Z,-12.40
2022-12-18T16:10:36.075Z,-12.42
2022-12-18T16:13:22.107Z,-12.38
2022-12-18T16:16:09.566Z,-12.34
2022-12-18T16:18:55.112Z,-12.30
2022-12-18T16:21:40.590Z,-12.23
2022-12-18T16:24:31.979Z,-12.15
2022-12-18T16:27:17.786Z,-12.06
2022-12-18T16:30:03.986Z,-11.96
2022-12-18T16:32:51.003Z,-11.88
2022-12-18T16:35:38.274Z,-11.79
2022-12-18T16:38:23.374Z,-11.71
2022-12-18T16:41:34.799Z,-11.63
2022-12-18T16:44:21.259Z,-11.57
2022-12-18T16:47:06.820Z,-11.53
2022-12-18T16:49:54.683Z,-11.47
2022-12-18T16:52:40.223Z,-11.40
2022-12-18T16:55:25.441Z,-11.33
2022-12-18T16:58:11.539Z,-11.28
2022-12-18T17:00:58.189Z,-11.21
2022-12-18T17:03:44.319Z,-11.15
2022-12-18T17:09:25.305Z,-10.99
2022-12-18T17:12:10.858Z,-10.91
2022-12-18T17:14:56.652Z,-10.84
2022-12-18T17:17:42.277Z,-10.77
2022-12-18T17:20:28.010Z,-10.69
2022-12-18T17:23:13.495Z,-10.59
2022-12-18T17:26:00.229Z,-10.52
2022-12-18T17:28:48.178Z,-10.44
2022-12-18T17:31:36.990Z,-10.38
2022-12-18T17:34:23.344Z,-10.32
2022-12-18T17:37:09.614Z,-10.26
2022-12-18T17:39:54.742Z,-10.23
2022-12-18T17:42:40.641Z,-10.19
2022-12-18T17:45:26.003Z,-10.16
2022-12-18T17:48:14.023Z,-10.13
2022-12-18T17:51:04.277Z,-10.09
2022-12-18T17:53:50.556Z,-10.05
2022-12-18T17:56:39.570Z,-10.02
2022-12-18T17:59:28.092Z,-9.97
2022-12-18T18:02:13.893Z,-9.93
2022-12-18T18:05:02.267Z,-9.89
2022-12-18T18:07:48.087Z,-9.86
2022-12-18T18:10:38.376Z,-9.83
2022-12-18T18:13:47.082Z,-9.80
2022-12-18T18:16:38.745Z,-9.76
2022-12-18T18:19:25.086Z,-9.74
2022-12-18T18:22:11.173Z,-9.71
2022-12-18T18:24:56.462Z,-9.70
2022-12-18T18:27:41.956Z,-9.69
2022-12-18T18:30:31.508Z,-9.65
2022-12-18T18:33:18.205Z,-9.63
2022-12-18T18:36:04.321Z,-9.60
2022-12-18T18:38:51.274Z,-9.58
2022-12-18T18:41:36.701Z,-9.56
2022-12-18T18:44:25.687Z,-9.53
2022-12-18T18:47:11.220Z,-9.51
2022-12-18T18:49:56.741Z,-9.50
2022-12-18T18:52:42.477Z,-9.49
2022-12-18T18:55:35.674Z,-9.46
2022-12-18T18:58:21.005Z,-9.43
2022-12-18T19:01:16.342Z,-9.41
2022-12-18T19:04:03.183Z,-9.38
2022-12-18T19:06:49.471Z,-9.36
2022-12-18T19:09:36.387Z,-9.33
2022-12-18T19:13:05.893Z,-9.30
2022-12-18T19:15:53.820Z,-9.28
2022-12-18T19:18:40.689Z,-9.26
2022-12-18T19:21:31.178Z,-9.23
2022-12-18T19:24:21.413Z,-9.21
2022-12-18T19:27:07.877Z,-9.17
2022-12-18T19:29:53.382Z,-9.19
2022-12-18T19:32:39.006Z,-9.18
2022-12-18T19:35:25.049Z,-9.14
2022-12-18T19:38:10.991Z,-9.12
2022-12-18T19:40:56.525Z,-9.12
2022-12-18T19:43:45.334Z,-9.10
2022-12-18T19:46:30.848Z,-9.09
2022-12-18T19:49:18.076Z,-9.07
2022-12-18T19:52:04.258Z,-9.03
2022-12-18T19:54:52.821Z,-9.02
2022-12-18T19:57:38.913Z,-9.00
2022-12-18T20:00:24.564Z,-8.98
2022-12-18T20:03:20.501Z,-8.98
2022-12-18T20:06:20.547Z,-8.99
2022-12-18T20:09:07.881Z,-8.96
2022-12-18T20:11:53.726Z,-8.92
2022-12-18T20:14:39.298Z,-8.90
2022-12-18T20:17:24.716Z,-8.87
2022-12-18T20:20:11.254Z,-8.84
2022-12-18T20:22:57.410Z,-8.81
2022-12-18T20:25:43.898Z,-8.81
2022-12-18T20:28:30.698Z,-8.78
2022-12-18T20:31:16.160Z,-8.77
2022-12-18T20:34:03.677Z,-8.76
2022-12-18T20:36:51.881Z,-8.76
2022-12-18T20:39:37.853Z,-8.75
2022-12-18T20:42:23.955Z,-8.75
2022-12-18T20:45:09.629Z,-8.75
2022-12-18T20:47:55.471Z,-8.76
2022-12-18T20:50:43.392Z,-8.76
2022-12-18T20:53:29.484Z,-8.77
2022-12-18T20:56:21.655Z,-8.77
2022-12-18T20:59:07.595Z,-8.81
2022-12-18T21:01:53.206Z,-8.89
2022-12-18T21:04:41.904Z,-8.92
2022-12-18T21:07:27.695Z,-8.98
2022-12-18T21:10:13.487Z,-8.98
2022-12-18T21:13:04.606Z,-8.99
2022-12-18T21:15:54.451Z,-8.97
2022-12-18T21:18:40.078Z,-8.96
2022-12-18T21:21:26.878Z,-8.97
2022-12-18T21:24:13.066Z,-8.96
2022-12-18T21:26:58.685Z,-8.95
2022-12-18T21:29:44.284Z,-8.97
2022-12-18T21:32:33.472Z,-9.03
2022-12-18T21:35:22.478Z,-9.06
2022-12-18T21:38:10.097Z,-9.04
2022-12-18T21:40:55.977Z,-9.03
2022-12-18T21:44:00.246Z,-9.03
2022-12-18T21:46:53.134Z,-9.08
2022-12-18T21:49:40.909Z,-9.10
2022-12-18T21:52:32.166Z,-9.09
2022-12-18T21:55:18.548Z,-9.05
2022-12-18T21:58:03.942Z,-9.02
2022-12-18T22:00:50.407Z,-9.00
2022-12-18T22:03:35.925Z,-8.99
2022-12-18T22:06:22.519Z,-8.95
2022-12-18T22:09:09.505Z,-8.94
2022-12-18T22:11:54.986Z,-8.93
2022-12-18T22:14:40.235Z,-8.92
2022-12-18T22:17:25.784Z,-8.96
2022-12-18T22:20:13.549Z,-9.03
2022-12-18T22:23:01.065Z,-9.03
2022-12-18T22:25:51.892Z,-8.99
2022-12-18T22:28:55.776Z,-8.99
2022-12-18T22:31:45.871Z,-8.98
2022-12-18T22:34:36.290Z,-8.98
2022-12-18T22:37:24.880Z,-9.00
2022-12-18T22:40:25.415Z,-9.00
2022-12-18T22:43:11.885Z,-8.98
2022-12-18T22:45:57.714Z,-8.97
2022-12-18T22:48:43.773Z,-8.96
2022-12-18T22:51:29.530Z,-8.98
2022-12-18T22:54:17.654Z,-8.99
2022-12-18T22:57:04.006Z,-9.00
2022-12-18T22:59:50.686Z,-9.00
2022-12-18T23:02:38.664Z,-9.01
2022-12-18T23:05:28.522Z,-9.03
2022-12-18T23:08:14.016Z,-9.06
2022-12-18T23:10:59.660Z,-9.08
2022-12-18T23:13:45.508Z,-9.07
2022-12-18T23:16:31.470Z,-9.05
2022-12-18T23:19:16.827Z,-9.01
2022-12-18T23:22:11.909Z,-9.04
2022-12-18T23:24:57.506Z,-9.05
2022-12-18T23:27:45.896Z,-9.02
2022-12-18T23:30:32.674Z,-8.97
2022-12-18T23:33:18.058Z,-8.90
2022-12-18T23:36:06.726Z,-8.89
2022-12-18T23:38:54.745Z,-8.84
2022-12-18T23:41:40.285Z,-8.80
2022-12-18T23:44:27.677Z,-8.75
2022-12-18T23:47:12.864Z,-8.67
2022-12-18T23:49:58.399Z,-8.56
2022-12-18T23:52:45.806Z,-8.43
2022-12-18T23:55:31.429Z,-8.34
2022-12-18T23:58:21.186Z,-8.26
